Flight Track Log - Related Links

Times and Time Zones

All times are in EDT time to prevent confusion due to time zone crossing. See the JIA4626 flight status page for this flight to view local times or setup timezone preferences in your user account.

Time Position Orientation Groundspeed Altitude Reporting Facility
EDT Latitude Longitude Course Direction KTS MPH feet Rate Location/Type
Sat 06:24:59 AM 40.8781 -81.4506 166° South 191 220 3,800  Level Cleveland Center
Sat 06:25:59 AM 40.8353 -81.3783 128° Southeast 250 288 6,700 2,579 Climbing Cleveland Center
Sat 06:26:00 AM 40.7875 -81.1522 149° Southeast  Level Estimated
Sat 06:27:00 AM 40.7030 -81.1641 186° South  Level FlightAware Approximate
Sat 06:27:00 AM 40.7619 -81.3256 151° Southeast 291 335 9,000  Level Cleveland Center
Sat 06:28:00 AM 40.6619 -81.0662 153° Southeast  Level Estimated
Sat 06:28:01 AM 40.6883 -81.2750 152° Southeast 298 343 12,500  Level Cleveland Center
Sat 06:29:00 AM 40.5771 -81.0721 183° South  Level FlightAware Approximate
Sat 06:29:02 AM 40.6092 -81.2200 152° Southeast 315 362 15,400  Level Cleveland Center
Sat 06:30:00 AM 40.5375 -80.9733 166° South  Level Estimated
Sat 06:30:03 AM 40.5286 -81.1642 152° Southeast 334 384 17,800  Level Cleveland Center
Sat 06:31:03 AM 40.4389 -81.1036 153° Southeast 360 414 20,000 2,132 Climbing Cleveland Center
Sat 06:32:04 AM 40.3472 -81.0414 153° Southeast 367 422 22,100 1,918 Climbing Cleveland Center
Sat 06:33:05 AM 40.2517 -80.9778 153° Southeast 384 442 23,900 1,770 Climbing Cleveland Center
Sat 06:34:06 AM 40.1542 -80.9103 152° Southeast 395 455 25,700 1,525 Climbing Cleveland Center
Sat 06:35:07 AM 40.0539 -80.8428 153° Southeast 404 465 27,000 639 Climbing Cleveland Center
Sat 06:36:08 AM 39.9442 -80.7158 138° Southeast 448 516 27,000  Level Cleveland Center
Sat 06:37:08 AM 39.8589 -80.5986 133° Southeast 449 517 27,000  Level Cleveland Center
Sat 06:38:09 AM 39.7742 -80.4819 133° Southeast 448 516 27,000  Level Cleveland Center
Sat 06:39:10 AM 39.6900 -80.3667 133° Southeast 446 513 27,000  Level Cleveland Center
Sat 06:40:11 AM 39.6056 -80.2514 134° Southeast 445 512 27,000  Level Cleveland Center
Sat 06:41:12 AM 39.5228 -80.1350 133° Southeast 443 510 27,000  Level Cleveland Center
Sat 06:42:13 AM 39.4394 -80.0253 135° Southeast 435 501 27,000  Level Cleveland Center
Sat 06:43:14 AM 39.3561 -79.9111 133° Southeast 436 502 27,000  Level Cleveland Center
Sat 06:44:15 AM 39.2906 -79.7822 123° Southeast 442 509 27,000  Level Cleveland Center
Sat 06:45:16 AM 39.2781 -79.6250 96° East 442 509 27,000  Level Cleveland Center
Sat 06:46:17 AM 39.2617 -79.4350 96° East 443 510 27,000  Level Cleveland Center
Sat 06:47:09 AM 39.2517 -79.3081 96° East 445 512 27,000 -842 Level Washington Center
Sat 06:48:11 AM 39.2386 -79.1572 96° East 448 516 25,400 -1,869 Descending Washington Center
Sat 06:49:11 AM 39.2253 -78.9983 96° East 450 518 23,200 -2,195 Descending Washington Center
Sat 06:50:14 AM 39.2108 -78.8447 97° East 437 503 20,900 -1,561 Descending Washington Center
Sat 06:51:14 AM 39.1967 -78.6994 97° East 411 473 20,000 -893 Descending Washington Center
Sat 06:52:15 AM 39.1803 -78.5269 97° East 406 467 19,100 -1,475 Descending Washington Center
Sat 06:53:16 AM 39.1656 -78.3850 98° East 403 464 17,000 -2,164 Descending Washington Center
Sat 06:54:17 AM 39.1367 -78.2547 106° East 383 441 14,700 -1,415 Descending Washington Center
Sat 06:55:19 AM 39.1053 -78.1297 108° East 370 426 14,100 -878 Descending Washington Center
Sat 06:56:20 AM 39.0739 -78.0053 108° East 368 423 12,900 -1,279 Descending Washington Center
Sat 06:57:21 AM 39.0433 -77.8889 109° East 342 394 11,500 -1,328 Descending Washington Center
Sat 06:58:22 AM 39.0158 -77.7764 107° East 315 362 10,200 -823 Descending Washington Center
Sat 06:59:25 AM 38.9858 -77.6619 109° East 314 361 9,800 -724 Descending Washington Center
Sat 07:00:18 AM 38.9500 -77.5667 116° Southeast 310 357 8,800 -903 Descending Potomac TRACON
Sat 07:01:18 AM 38.9167 -77.4667 113° Southeast 339 390 8,100 -600 Descending Potomac TRACON
Sat 07:02:18 AM 38.8833 -77.3667 113° Southeast 299 344 7,600 -1,105 Descending Potomac TRACON
Sat 07:03:12 AM 38.8333 -77.2833 128° Southeast 289 333 6,000 -1,842 Descending Potomac TRACON
Sat 07:04:12 AM 38.8000 -77.2000 117° Southeast 282 325 4,100 -1,750 Descending Potomac TRACON
Sat 07:05:12 AM 38.7667 -77.1167 117° Southeast 273 314 2,500 -895 Descending Potomac TRACON
Sat 07:06:06 AM 38.7000 -77.1000 169° South 266 306 2,400 -316 Descending Potomac TRACON
Sat 07:07:06 AM 38.7000 -77.0500 90° East 188 216 1,900 -400 Descending Potomac TRACON
Sat 07:08:06 AM 38.7333 -77.0167 38° Northeast 146 168 1,600 -200 Descending Potomac TRACON
Sat 07:09:06 AM 38.7667 -77.0333 339° North 122 140 1,500 -350 Descending Potomac TRACON
Sat 07:10:06 AM 38.8000 -77.0333 360° North 112 129 900 -500 Descending Potomac TRACON
Sat 07:11:42 AM 38.8492 -77.0378 356° North 116 133 200 -438 Descending Washington Center

Login

Don't have an account? Register now (free) for customized features, flight alerts, and more!